sensor_id;sensor_type;location;lat;lon;timestamp;temperature;humidity
792;DHT22;379;49.022;12.148;2022-08-01T00:01:32;20.00;66.20
792;DHT22;379;49.022;12.148;2022-08-01T00:03:58;20.00;66.40
792;DHT22;379;49.022;12.148;2022-08-01T00:06:26;20.00;66.60
792;DHT22;379;49.022;12.148;2022-08-01T00:08:53;20.00;66.40
792;DHT22;379;49.022;12.148;2022-08-01T00:11:20;19.90;66.50
792;DHT22;379;49.022;12.148;2022-08-01T00:13:47;19.80;66.80
792;DHT22;379;49.022;12.148;2022-08-01T00:16:14;19.80;70.60
792;DHT22;379;49.022;12.148;2022-08-01T00:18:41;19.80;70.20
792;DHT22;379;49.022;12.148;2022-08-01T00:21:08;19.80;70.60
792;DHT22;379;49.022;12.148;2022-08-01T00:23:36;19.80;71.70
792;DHT22;379;49.022;12.148;2022-08-01T00:26:03;19.80;71.20
792;DHT22;379;49.022;12.148;2022-08-01T00:28:30;19.90;70.90
792;DHT22;379;49.022;12.148;2022-08-01T00:30:57;20.00;70.50
792;DHT22;379;49.022;12.148;2022-08-01T00:33:23;19.90;70.30
792;DHT22;379;49.022;12.148;2022-08-01T00:35:50;19.80;70.70
792;DHT22;379;49.022;12.148;2022-08-01T00:38:17;19.80;70.40
792;DHT22;379;49.022;12.148;2022-08-01T00:40:45;19.80;70.60
792;DHT22;379;49.022;12.148;2022-08-01T00:43:12;19.80;70.40
792;DHT22;379;49.022;12.148;2022-08-01T00:45:39;19.80;70.10
792;DHT22;379;49.022;12.148;2022-08-01T00:48:06;19.80;70.00
792;DHT22;379;49.022;12.148;2022-08-01T00:50:33;19.80;69.90
792;DHT22;379;49.022;12.148;2022-08-01T00:53:01;19.70;69.80
792;DHT22;379;49.022;12.148;2022-08-01T00:55:28;19.70;70.20
792;DHT22;379;49.022;12.148;2022-08-01T00:57:56;19.60;70.80
792;DHT22;379;49.022;12.148;2022-08-01T01:00:23;19.60;71.10
792;DHT22;379;49.022;12.148;2022-08-01T01:02:50;19.50;71.10
792;DHT22;379;49.022;12.148;2022-08-01T01:05:17;19.40;71.20
792;DHT22;379;49.022;12.148;2022-08-01T01:07:49;19.30;71.60
792;DHT22;379;49.022;12.148;2022-08-01T01:10:20;19.30;71.50
792;DHT22;379;49.022;12.148;2022-08-01T01:12:51;19.30;71.70
792;DHT22;379;49.022;12.148;2022-08-01T01:15:26;19.30;71.40
792;DHT22;379;49.022;12.148;2022-08-01T01:17:58;19.30;71.60
792;DHT22;379;49.022;12.148;2022-08-01T01:20:30;19.30;71.40
792;DHT22;379;49.022;12.148;2022-08-01T01:23:10;19.30;71.30
792;DHT22;379;49.022;12.148;2022-08-01T01:25:54;19.20;71.40
792;DHT22;379;49.022;12.148;2022-08-01T01:28:30;19.10;71.40
792;DHT22;379;49.022;12.148;2022-08-01T01:31:03;19.10;71.40
792;DHT22;379;49.022;12.148;2022-08-01T01:33:34;19.10;71.40
792;DHT22;379;49.022;12.148;2022-08-01T01:36:05;19.00;71.20
792;DHT22;379;49.022;12.148;2022-08-01T01:38:39;19.10;71.30
792;DHT22;379;49.022;12.148;2022-08-01T01:41:08;19.10;70.80
792;DHT22;379;49.022;12.148;2022-08-01T01:43:36;19.10;70.80
792;DHT22;379;49.022;12.148;2022-08-01T01:46:05;19.10;70.80
792;DHT22;379;49.022;12.148;2022-08-01T01:48:34;19.10;71.00
792;DHT22;379;49.022;12.148;2022-08-01T01:51:03;19.10;71.20
792;DHT22;379;49.022;12.148;2022-08-01T01:53:32;19.10;71.30
792;DHT22;379;49.022;12.148;2022-08-01T01:56:01;19.10;71.50
792;DHT22;379;49.022;12.148;2022-08-01T01:58:29;19.10;71.50
792;DHT22;379;49.022;12.148;2022-08-01T02:00:58;19.00;71.40
792;DHT22;379;49.022;12.148;2022-08-01T02:03:28;19.00;71.70
792;DHT22;379;49.022;12.148;2022-08-01T02:05:56;18.90;71.70
792;DHT22;379;49.022;12.148;2022-08-01T02:08:24;18.90;71.80
792;DHT22;379;49.022;12.148;2022-08-01T02:10:53;18.90;71.80
792;DHT22;379;49.022;12.148;2022-08-01T02:13:39;18.90;71.90
792;DHT22;379;49.022;12.148;2022-08-01T02:16:07;18.90;71.80
792;DHT22;379;49.022;12.148;2022-08-01T02:18:37;18.90;71.90
792;DHT22;379;49.022;12.148;2022-08-01T02:21:09;18.90;72.00
792;DHT22;379;49.022;12.148;2022-08-01T02:23:38;18.90;72.00
792;DHT22;379;49.022;12.148;2022-08-01T02:26:08;18.90;72.40
792;DHT22;379;49.022;12.148;2022-08-01T02:28:41;18.80;72.50
792;DHT22;379;49.022;12.148;2022-08-01T02:31:13;18.80;72.80
792;DHT22;379;49.022;12.148;2022-08-01T02:33:46;18.80;73.10
792;DHT22;379;49.022;12.148;2022-08-01T02:36:14;18.80;73.30
792;DHT22;379;49.022;12.148;2022-08-01T02:38:44;18.80;73.20
792;DHT22;379;49.022;12.148;2022-08-01T02:41:16;18.80;73.20
792;DHT22;379;49.022;12.148;2022-08-01T02:43:48;18.80;73.30
792;DHT22;379;49.022;12.148;2022-08-01T02:46:20;18.70;73.40
792;DHT22;379;49.022;12.148;2022-08-01T02:48:50;18.70;73.60
792;DHT22;379;49.022;12.148;2022-08-01T02:51:19;18.70;73.70
792;DHT22;379;49.022;12.148;2022-08-01T02:53:50;18.70;73.60
792;DHT22;379;49.022;12.148;2022-08-01T02:56:17;18.70;73.90
792;DHT22;379;49.022;12.148;2022-08-01T02:58:46;18.60;73.90
792;DHT22;379;49.022;12.148;2022-08-01T03:01:14;18.60;74.00
792;DHT22;379;49.022;12.148;2022-08-01T03:03:41;18.60;74.20
792;DHT22;379;49.022;12.148;2022-08-01T03:06:10;18.60;74.40
792;DHT22;379;49.022;12.148;2022-08-01T03:08:38;18.60;74.40
792;DHT22;379;49.022;12.148;2022-08-01T03:11:06;18.60;74.40
792;DHT22;379;49.022;12.148;2022-08-01T03:13:33;18.60;74.50
792;DHT22;379;49.022;12.148;2022-08-01T03:16:01;18.50;74.50
792;DHT22;379;49.022;12.148;2022-08-01T03:18:29;18.60;74.70
792;DHT22;379;49.022;12.148;2022-08-01T03:20:57;18.60;74.60
792;DHT22;379;49.022;12.148;2022-08-01T03:23:27;18.60;74.60
792;DHT22;379;49.022;12.148;2022-08-01T03:25:56;18.50;74.40
792;DHT22;379;49.022;12.148;2022-08-01T03:28:24;18.50;74.40
792;DHT22;379;49.022;12.148;2022-08-01T03:30:52;18.50;74.40
792;DHT22;379;49.022;12.148;2022-08-01T03:33:19;18.50;74.40
792;DHT22;379;49.022;12.148;2022-08-01T03:35:48;18.50;74.50
792;DHT22;379;49.022;12.148;2022-08-01T03:38:19;18.50;74.80
792;DHT22;379;49.022;12.148;2022-08-01T03:40:53;18.50;74.80
792;DHT22;379;49.022;12.148;2022-08-01T03:43:26;18.50;74.90
792;DHT22;379;49.022;12.148;2022-08-01T03:46:00;18.50;74.90
792;DHT22;379;49.022;12.148;2022-08-01T03:48:29;18.40;74.80
792;DHT22;379;49.022;12.148;2022-08-01T03:50:58;18.40;75.10
792;DHT22;379;49.022;12.148;2022-08-01T03:53:30;18.40;75.40
792;DHT22;379;49.022;12.148;2022-08-01T03:56:00;18.40;75.90
792;DHT22;379;49.022;12.148;2022-08-01T03:58:29;18.50;75.70
792;DHT22;379;49.022;12.148;2022-08-01T04:00:57;18.50;75.30
792;DHT22;379;49.022;12.148;2022-08-01T04:03:25;18.70;75.10
792;DHT22;379;49.022;12.148;2022-08-01T04:05:52;18.70;74.20
792;DHT22;379;49.022;12.148;2022-08-01T04:08:19;18.80;73.80
792;DHT22;379;49.022;12.148;2022-08-01T04:10:45;18.90;73.50
792;DHT22;379;49.022;12.148;2022-08-01T04:13:14;19.00;73.10
792;DHT22;379;49.022;12.148;2022-08-01T04:15:40;19.00;72.80
792;DHT22;379;49.022;12.148;2022-08-01T04:18:07;19.10;72.40
792;DHT22;379;49.022;12.148;2022-08-01T04:20:34;19.20;72.00
792;DHT22;379;49.022;12.148;2022-08-01T04:23:01;19.40;71.60
792;DHT22;379;49.022;12.148;2022-08-01T04:25:33;19.50;71.30
792;DHT22;379;49.022;12.148;2022-08-01T04:28:01;19.60;70.60
792;DHT22;379;49.022;12.148;2022-08-01T04:30:32;19.80;70.30
792;DHT22;379;49.022;12.148;2022-08-01T04:33:01;19.90;69.70
792;DHT22;379;49.022;12.148;2022-08-01T04:35:32;20.00;69.50
792;DHT22;379;49.022;12.148;2022-08-01T04:38:00;20.00;69.30
792;DHT22;379;49.022;12.148;2022-08-01T04:40:28;20.10;69.20
792;DHT22;379;49.022;12.148;2022-08-01T04:42:56;20.10;68.60
792;DHT22;379;49.022;12.148;2022-08-01T04:45:23;20.20;68.20
792;DHT22;379;49.022;12.148;2022-08-01T04:47:52;20.30;67.50
792;DHT22;379;49.022;12.148;2022-08-01T04:50:19;20.40;67.10
792;DHT22;379;49.022;12.148;2022-08-01T04:52:47;20.50;66.20
792;DHT22;379;49.022;12.148;2022-08-01T04:55:14;20.70;65.40
792;DHT22;379;49.022;12.148;2022-08-01T04:57:44;20.90;65.20
792;DHT22;379;49.022;12.148;2022-08-01T05:00:12;21.00;64.80
792;DHT22;379;49.022;12.148;2022-08-01T05:02:39;21.00;64.00
792;DHT22;379;49.022;12.148;2022-08-01T05:05:08;21.00;63.80
792;DHT22;379;49.022;12.148;2022-08-01T05:07:35;21.00;63.70
792;DHT22;379;49.022;12.148;2022-08-01T05:10:03;21.00;63.90
792;DHT22;379;49.022;12.148;2022-08-01T05:12:30;21.00;63.80
792;DHT22;379;49.022;12.148;2022-08-01T05:14:58;21.10;63.70
792;DHT22;379;49.022;12.148;2022-08-01T05:17:24;21.30;64.70
792;DHT22;379;49.022;12.148;2022-08-01T05:19:51;22.00;63.80
792;DHT22;379;49.022;12.148;2022-08-01T05:22:19;23.20;61.70
792;DHT22;379;49.022;12.148;2022-08-01T05:24:46;24.30;59.40
792;DHT22;379;49.022;12.148;2022-08-01T05:27:13;25.30;58.10
792;DHT22;379;49.022;12.148;2022-08-01T05:29:39;26.50;55.20
792;DHT22;379;49.022;12.148;2022-08-01T05:32:06;27.80;53.20
792;DHT22;379;49.022;12.148;2022-08-01T05:34:33;28.10;49.30
792;DHT22;379;49.022;12.148;2022-08-01T05:37:00;28.50;48.80
792;DHT22;379;49.022;12.148;2022-08-01T05:39:28;28.40;48.10
792;DHT22;379;49.022;12.148;2022-08-01T05:41:55;28.50;47.40
792;DHT22;379;49.022;12.148;2022-08-01T05:44:22;28.80;46.90
792;DHT22;379;49.022;12.148;2022-08-01T05:46:48;29.00;46.30
792;DHT22;379;49.022;12.148;2022-08-01T05:49:15;29.40;45.70
792;DHT22;379;49.022;12.148;2022-08-01T05:51:42;29.80;45.60
792;DHT22;379;49.022;12.148;2022-08-01T05:54:09;29.90;44.90
792;DHT22;379;49.022;12.148;2022-08-01T05:56:37;30.30;44.30
792;DHT22;379;49.022;12.148;2022-08-01T05:59:04;29.80;43.70
792;DHT22;379;49.022;12.148;2022-08-01T06:01:31;29.20;45.10
792;DHT22;379;49.022;12.148;2022-08-01T06:03:57;28.80;46.00
792;DHT22;379;49.022;12.148;2022-08-01T06:06:24;28.40;46.80
792;DHT22;379;49.022;12.148;2022-08-01T06:08:52;28.40;47.70
792;DHT22;379;49.022;12.148;2022-08-01T06:11:18;29.10;46.80
792;DHT22;379;49.022;12.148;2022-08-01T06:13:47;29.80;46.50
792;DHT22;379;49.022;12.148;2022-08-01T06:16:13;30.50;44.60
792;DHT22;379;49.022;12.148;2022-08-01T06:18:40;30.70;44.10
792;DHT22;379;49.022;12.148;2022-08-01T06:21:07;30.60;43.70
792;DHT22;379;49.022;12.148;2022-08-01T06:23:34;30.10;44.10
792;DHT22;379;49.022;12.148;2022-08-01T06:26:00;29.90;44.90
792;DHT22;379;49.022;12.148;2022-08-01T06:28:27;30.40;44.80
792;DHT22;379;49.022;12.148;2022-08-01T06:30:55;30.40;44.10
792;DHT22;379;49.022;12.148;2022-08-01T06:33:24;30.40;43.70
792;DHT22;379;49.022;12.148;2022-08-01T06:35:50;30.20;44.30
792;DHT22;379;49.022;12.148;2022-08-01T06:38:17;30.10;44.40
792;DHT22;379;49.022;12.148;2022-08-01T06:40:44;30.20;44.50
792;DHT22;379;49.022;12.148;2022-08-01T06:43:11;30.50;44.90
792;DHT22;379;49.022;12.148;2022-08-01T06:45:37;31.00;44.00
792;DHT22;379;49.022;12.148;2022-08-01T06:48:06;31.50;42.30
792;DHT22;379;49.022;12.148;2022-08-01T06:50:33;31.20;43.10
792;DHT22;379;49.022;12.148;2022-08-01T06:53:01;30.90;42.80
792;DHT22;379;49.022;12.148;2022-08-01T06:55:28;30.60;43.30
792;DHT22;379;49.022;12.148;2022-08-01T06:57:54;30.20;44.40
792;DHT22;379;49.022;12.148;2022-08-01T07:00:23;29.90;44.70
792;DHT22;379;49.022;12.148;2022-08-01T07:02:50;29.90;45.00
792;DHT22;379;49.022;12.148;2022-08-01T07:05:19;30.00;45.30
792;DHT22;379;49.022;12.148;2022-08-01T07:07:46;30.50;45.00
792;DHT22;379;49.022;12.148;2022-08-01T07:10:13;31.20;43.90
792;DHT22;379;49.022;12.148;2022-08-01T07:12:40;31.30;42.30
792;DHT22;379;49.022;12.148;2022-08-01T07:15:09;31.00;43.80
792;DHT22;379;49.022;12.148;2022-08-01T07:17:39;31.00;43.30
792;DHT22;379;49.022;12.148;2022-08-01T07:20:08;31.30;43.30
792;DHT22;379;49.022;12.148;2022-08-01T07:22:37;31.20;42.70
792;DHT22;379;49.022;12.148;2022-08-01T07:25:05;31.20;43.30
792;DHT22;379;49.022;12.148;2022-08-01T07:27:32;31.00;43.40
792;DHT22;379;49.022;12.148;2022-08-01T07:29:59;30.50;43.90
792;DHT22;379;49.022;12.148;2022-08-01T07:32:26;30.00;45.10
792;DHT22;379;49.022;12.148;2022-08-01T07:34:54;29.50;45.80
792;DHT22;379;49.022;12.148;2022-08-01T07:37:21;29.10;46.60
792;DHT22;379;49.022;12.148;2022-08-01T07:39:50;29.20;47.20
792;DHT22;379;49.022;12.148;2022-08-01T07:42:17;29.30;47.20
792;DHT22;379;49.022;12.148;2022-08-01T07:44:44;29.40;46.80
792;DHT22;379;49.022;12.148;2022-08-01T07:47:11;29.30;46.90
792;DHT22;379;49.022;12.148;2022-08-01T07:49:37;29.00;47.60
792;DHT22;379;49.022;12.148;2022-08-01T07:52:04;28.70;48.50
792;DHT22;379;49.022;12.148;2022-08-01T07:54:31;29.00;48.60
792;DHT22;379;49.022;12.148;2022-08-01T07:56:59;29.00;47.50
792;DHT22;379;49.022;12.148;2022-08-01T07:59:26;29.10;48.30
792;DHT22;379;49.022;12.148;2022-08-01T08:01:53;29.20;47.30
792;DHT22;379;49.022;12.148;2022-08-01T08:04:20;29.40;47.00
792;DHT22;379;49.022;12.148;2022-08-01T08:06:47;29.10;47.40
792;DHT22;379;49.022;12.148;2022-08-01T08:09:14;28.80;48.20
792;DHT22;379;49.022;12.148;2022-08-01T08:11:42;28.80;48.20
792;DHT22;379;49.022;12.148;2022-08-01T08:14:11;29.10;48.90
792;DHT22;379;49.022;12.148;2022-08-01T08:16:37;29.40;47.20
792;DHT22;379;49.022;12.148;2022-08-01T08:19:04;29.10;47.40
792;DHT22;379;49.022;12.148;2022-08-01T08:21:31;28.90;48.10
792;DHT22;379;49.022;12.148;2022-08-01T08:23:58;28.70;48.30
792;DHT22;379;49.022;12.148;2022-08-01T08:26:39;29.20;48.60
792;DHT22;379;49.022;12.148;2022-08-01T08:29:06;29.90;46.80
792;DHT22;379;49.022;12.148;2022-08-01T08:31:34;29.90;46.10
792;DHT22;379;49.022;12.148;2022-08-01T08:34:01;30.30;46.20
792;DHT22;379;49.022;12.148;2022-08-01T08:36:27;30.60;45.00
792;DHT22;379;49.022;12.148;2022-08-01T08:38:54;30.40;44.60
792;DHT22;379;49.022;12.148;2022-08-01T08:41:22;29.90;45.60
792;DHT22;379;49.022;12.148;2022-08-01T08:43:49;30.10;45.90
792;DHT22;379;49.022;12.148;2022-08-01T08:46:16;29.80;45.80
792;DHT22;379;49.022;12.148;2022-08-01T08:48:45;29.60;45.70
792;DHT22;379;49.022;12.148;2022-08-01T08:51:12;29.70;45.60
792;DHT22;379;49.022;12.148;2022-08-01T08:53:40;29.50;45.50
792;DHT22;379;49.022;12.148;2022-08-01T08:56:12;29.10;47.00
792;DHT22;379;49.022;12.148;2022-08-01T08:58:41;29.30;48.40
792;DHT22;379;49.022;12.148;2022-08-01T09:01:08;29.70;47.60
792;DHT22;379;49.022;12.148;2022-08-01T09:03:35;29.90;46.90
792;DHT22;379;49.022;12.148;2022-08-01T09:06:03;29.90;45.50
792;DHT22;379;49.022;12.148;2022-08-01T09:08:30;29.90;46.80
792;DHT22;379;49.022;12.148;2022-08-01T09:10:58;30.10;46.80
792;DHT22;379;49.022;12.148;2022-08-01T09:13:25;30.20;46.90
792;DHT22;379;49.022;12.148;2022-08-01T09:15:53;30.30;46.90
792;DHT22;379;49.022;12.148;2022-08-01T09:18:32;30.40;46.20
792;DHT22;379;49.022;12.148;2022-08-01T09:21:17;30.60;45.00
792;DHT22;379;49.022;12.148;2022-08-01T09:23:46;30.80;46.00
792;DHT22;379;49.022;12.148;2022-08-01T09:26:15;30.90;45.10
792;DHT22;379;49.022;12.148;2022-08-01T09:28:42;31.00;43.60
792;DHT22;379;49.022;12.148;2022-08-01T09:31:11;30.60;44.50
792;DHT22;379;49.022;12.148;2022-08-01T09:33:49;30.40;43.90
792;DHT22;379;49.022;12.148;2022-08-01T09:36:18;30.10;45.50
792;DHT22;379;49.022;12.148;2022-08-01T09:38:45;29.60;45.00
792;DHT22;379;49.022;12.148;2022-08-01T09:41:12;29.20;46.10
792;DHT22;379;49.022;12.148;2022-08-01T09:43:39;29.20;46.60
792;DHT22;379;49.022;12.148;2022-08-01T09:46:10;29.30;46.50
792;DHT22;379;49.022;12.148;2022-08-01T09:48:37;28.90;45.90
792;DHT22;379;49.022;12.148;2022-08-01T09:51:05;28.90;46.40
792;DHT22;379;49.022;12.148;2022-08-01T09:53:45;28.90;46.30
792;DHT22;379;49.022;12.148;2022-08-01T09:56:13;29.10;46.00
792;DHT22;379;49.022;12.148;2022-08-01T09:58:53;29.30;45.30
792;DHT22;379;49.022;12.148;2022-08-01T10:01:21;29.40;45.20
792;DHT22;379;49.022;12.148;2022-08-01T10:04:05;29.50;45.70
792;DHT22;379;49.022;12.148;2022-08-01T10:06:31;29.70;45.30
792;DHT22;379;49.022;12.148;2022-08-01T10:09:00;30.20;45.70
792;DHT22;379;49.022;12.148;2022-08-01T10:11:28;30.60;44.50
792;DHT22;379;49.022;12.148;2022-08-01T10:13:56;30.90;43.70
792;DHT22;379;49.022;12.148;2022-08-01T10:16:25;30.90;43.50
792;DHT22;379;49.022;12.148;2022-08-01T10:18:54;30.90;43.50
792;DHT22;379;49.022;12.148;2022-08-01T10:21:23;30.90;44.60
792;DHT22;379;49.022;12.148;2022-08-01T10:23:52;31.00;44.30
792;DHT22;379;49.022;12.148;2022-08-01T10:26:22;30.90;43.50
792;DHT22;379;49.022;12.148;2022-08-01T10:28:51;30.90;42.80
792;DHT22;379;49.022;12.148;2022-08-01T10:31:19;30.90;42.60
792;DHT22;379;49.022;12.148;2022-08-01T10:33:45;31.20;42.50
792;DHT22;379;49.022;12.148;2022-08-01T10:36:13;30.80;40.60
792;DHT22;379;49.022;12.148;2022-08-01T10:38:40;30.80;42.20
792;DHT22;379;49.022;12.148;2022-08-01T10:41:08;30.90;41.50
792;DHT22;379;49.022;12.148;2022-08-01T10:43:36;30.70;40.60
792;DHT22;379;49.022;12.148;2022-08-01T10:46:04;30.80;43.20
792;DHT22;379;49.022;12.148;2022-08-01T10:48:38;31.00;43.10
792;DHT22;379;49.022;12.148;2022-08-01T10:51:06;31.30;43.40
792;DHT22;379;49.022;12.148;2022-08-01T10:53:34;31.50;42.80
792;DHT22;379;49.022;12.148;2022-08-01T10:56:02;31.60;41.50
792;DHT22;379;49.022;12.148;2022-08-01T10:58:32;31.70;40.90
792;DHT22;379;49.022;12.148;2022-08-01T11:01:18;31.80;40.40
792;DHT22;379;49.022;12.148;2022-08-01T11:04:03;31.80;40.30
792;DHT22;379;49.022;12.148;2022-08-01T11:06:43;31.60;39.30
792;DHT22;379;49.022;12.148;2022-08-01T11:09:29;31.10;39.10
792;DHT22;379;49.022;12.148;2022-08-01T11:12:02;30.40;40.30
792;DHT22;379;49.022;12.148;2022-08-01T11:14:31;29.80;41.70
792;DHT22;379;49.022;12.148;2022-08-01T11:17:33;29.20;43.00
792;DHT22;379;49.022;12.148;2022-08-01T11:20:05;28.90;44.00
792;DHT22;379;49.022;12.148;2022-08-01T11:22:31;28.90;44.80
792;DHT22;379;49.022;12.148;2022-08-01T11:24:58;29.30;44.10
792;DHT22;379;49.022;12.148;2022-08-01T11:27:28;29.50;43.20
792;DHT22;379;49.022;12.148;2022-08-01T11:30:22;29.50;43.30
792;DHT22;379;49.022;12.148;2022-08-01T11:32:53;29.50;43.50
792;DHT22;379;49.022;12.148;2022-08-01T11:35:21;29.70;43.70
792;DHT22;379;49.022;12.148;2022-08-01T11:37:49;29.50;43.00
792;DHT22;379;49.022;12.148;2022-08-01T11:40:19;29.40;43.20
792;DHT22;379;49.022;12.148;2022-08-01T11:42:46;29.40;43.50
792;DHT22;379;49.022;12.148;2022-08-01T11:45:13;29.90;44.30
792;DHT22;379;49.022;12.148;2022-08-01T11:47:45;30.40;43.10
792;DHT22;379;49.022;12.148;2022-08-01T11:53:08;30.90;42.50
792;DHT22;379;49.022;12.148;2022-08-01T11:55:35;31.40;41.10
792;DHT22;379;49.022;12.148;2022-08-01T11:58:03;31.50;40.90
792;DHT22;379;49.022;12.148;2022-08-01T12:00:31;31.70;40.60
792;DHT22;379;49.022;12.148;2022-08-01T12:02:59;32.00;40.60
792;DHT22;379;49.022;12.148;2022-08-01T12:05:27;32.30;39.80
792;DHT22;379;49.022;12.148;2022-08-01T12:07:55;32.70;39.20
792;DHT22;379;49.022;12.148;2022-08-01T12:10:25;33.00;38.80
792;DHT22;379;49.022;12.148;2022-08-01T12:12:53;33.20;38.00
792;DHT22;379;49.022;12.148;2022-08-01T12:15:21;33.10;37.60
792;DHT22;379;49.022;12.148;2022-08-01T12:17:51;32.70;38.10
792;DHT22;379;49.022;12.148;2022-08-01T12:20:20;32.40;38.20
792;DHT22;379;49.022;12.148;2022-08-01T12:22:47;32.00;38.90
792;DHT22;379;49.022;12.148;2022-08-01T12:25:15;31.50;38.80
792;DHT22;379;49.022;12.148;2022-08-01T12:27:45;30.90;39.80
792;DHT22;379;49.022;12.148;2022-08-01T12:30:14;30.50;40.60
792;DHT22;379;49.022;12.148;2022-08-01T12:32:42;30.50;41.20
792;DHT22;379;49.022;12.148;2022-08-01T12:35:11;30.40;41.30
792;DHT22;379;49.022;12.148;2022-08-01T12:37:40;30.40;41.50
792;DHT22;379;49.022;12.148;2022-08-01T12:40:13;30.40;41.40
792;DHT22;379;49.022;12.148;2022-08-01T12:42:41;30.40;41.40
792;DHT22;379;49.022;12.148;2022-08-01T12:45:12;30.20;41.70
792;DHT22;379;49.022;12.148;2022-08-01T12:47:40;30.30;41.70
792;DHT22;379;49.022;12.148;2022-08-01T12:50:11;30.30;41.40
792;DHT22;379;49.022;12.148;2022-08-01T12:52:38;30.20;41.70
792;DHT22;379;49.022;12.148;2022-08-01T12:55:08;30.30;41.30
792;DHT22;379;49.022;12.148;2022-08-01T12:57:37;30.30;41.30
792;DHT22;379;49.022;12.148;2022-08-01T13:00:11;30.40;41.20
792;DHT22;379;49.022;12.148;2022-08-01T13:02:39;30.60;40.60
792;DHT22;379;49.022;12.148;2022-08-01T13:05:07;30.60;40.80
792;DHT22;379;49.022;12.148;2022-08-01T13:07:36;30.60;40.70
792;DHT22;379;49.022;12.148;2022-08-01T13:10:04;30.70;41.40
792;DHT22;379;49.022;12.148;2022-08-01T13:12:31;30.90;40.90
792;DHT22;379;49.022;12.148;2022-08-01T13:14:58;30.80;39.40
792;DHT22;379;49.022;12.148;2022-08-01T13:17:33;30.70;40.70
792;DHT22;379;49.022;12.148;2022-08-01T13:20:01;30.80;40.70
792;DHT22;379;49.022;12.148;2022-08-01T13:22:34;30.90;40.80
792;DHT22;379;49.022;12.148;2022-08-01T13:25:11;31.00;40.90
792;DHT22;379;49.022;12.148;2022-08-01T13:27:38;31.20;40.60
792;DHT22;379;49.022;12.148;2022-08-01T13:30:12;31.50;39.70
792;DHT22;379;49.022;12.148;2022-08-01T13:32:41;31.50;38.90
792;DHT22;379;49.022;12.148;2022-08-01T13:35:10;31.10;39.30
792;DHT22;379;49.022;12.148;2022-08-01T13:37:39;30.60;40.00
792;DHT22;379;49.022;12.148;2022-08-01T13:40:07;30.30;40.10
792;DHT22;379;49.022;12.148;2022-08-01T13:42:35;30.00;40.70
792;DHT22;379;49.022;12.148;2022-08-01T13:45:02;29.70;41.30
792;DHT22;379;49.022;12.148;2022-08-01T13:50:50;29.40;42.30
792;DHT22;379;49.022;12.148;2022-08-01T13:53:17;29.80;42.50
792;DHT22;379;49.022;12.148;2022-08-01T13:55:44;30.00;42.30
792;DHT22;379;49.022;12.148;2022-08-01T13:58:10;29.90;40.00
792;DHT22;379;49.022;12.148;2022-08-01T14:00:37;29.80;42.00
792;DHT22;379;49.022;12.148;2022-08-01T14:03:04;29.90;41.70
792;DHT22;379;49.022;12.148;2022-08-01T14:05:31;30.10;41.80
792;DHT22;379;49.022;12.148;2022-08-01T14:07:59;30.30;42.20
792;DHT22;379;49.022;12.148;2022-08-01T14:10:26;30.50;40.40
792;DHT22;379;49.022;12.148;2022-08-01T14:12:54;30.60;40.60
792;DHT22;379;49.022;12.148;2022-08-01T14:15:21;30.70;39.50
792;DHT22;379;49.022;12.148;2022-08-01T14:17:48;30.80;39.60
792;DHT22;379;49.022;12.148;2022-08-01T14:20:15;30.80;39.20
792;DHT22;379;49.022;12.148;2022-08-01T14:22:45;30.80;39.40
792;DHT22;379;49.022;12.148;2022-08-01T14:25:13;30.80;38.60
792;DHT22;379;49.022;12.148;2022-08-01T14:27:39;30.90;39.20
792;DHT22;379;49.022;12.148;2022-08-01T14:30:08;30.90;38.20
792;DHT22;379;49.022;12.148;2022-08-01T14:32:35;30.70;37.30
792;DHT22;379;49.022;12.148;2022-08-01T14:35:02;30.70;36.90
792;DHT22;379;49.022;12.148;2022-08-01T14:37:30;30.70;36.90
792;DHT22;379;49.022;12.148;2022-08-01T14:39:58;30.70;38.40
792;DHT22;379;49.022;12.148;2022-08-01T14:42:26;30.90;38.10
792;DHT22;379;49.022;12.148;2022-08-01T14:44:53;31.00;37.80
792;DHT22;379;49.022;12.148;2022-08-01T14:47:20;31.20;37.70
792;DHT22;379;49.022;12.148;2022-08-01T14:49:46;31.30;36.40
792;DHT22;379;49.022;12.148;2022-08-01T14:52:13;31.30;36.30
792;DHT22;379;49.022;12.148;2022-08-01T14:54:40;31.40;34.80
792;DHT22;379;49.022;12.148;2022-08-01T14:57:07;31.30;37.20
792;DHT22;379;49.022;12.148;2022-08-01T14:59:35;31.40;37.60
792;DHT22;379;49.022;12.148;2022-08-01T15:02:01;31.60;37.20
792;DHT22;379;49.022;12.148;2022-08-01T15:04:28;31.60;36.60
792;DHT22;379;49.022;12.148;2022-08-01T15:06:55;31.60;36.10
792;DHT22;379;49.022;12.148;2022-08-01T15:09:22;31.50;36.40
792;DHT22;379;49.022;12.148;2022-08-01T15:11:49;31.50;36.00
792;DHT22;379;49.022;12.148;2022-08-01T15:14:16;31.60;35.60
792;DHT22;379;49.022;12.148;2022-08-01T15:17:02;31.70;35.70
792;DHT22;379;49.022;12.148;2022-08-01T15:19:29;31.80;35.60
792;DHT22;379;49.022;12.148;2022-08-01T15:21:55;31.90;35.20
792;DHT22;379;49.022;12.148;2022-08-01T15:24:22;31.80;34.50
792;DHT22;379;49.022;12.148;2022-08-01T15:26:49;31.60;34.40
792;DHT22;379;49.022;12.148;2022-08-01T15:29:15;31.50;34.70
792;DHT22;379;49.022;12.148;2022-08-01T15:31:42;31.50;35.40
792;DHT22;379;49.022;12.148;2022-08-01T15:34:10;31.40;35.60
792;DHT22;379;49.022;12.148;2022-08-01T15:36:37;31.30;34.80
792;DHT22;379;49.022;12.148;2022-08-01T15:39:04;31.00;34.90
792;DHT22;379;49.022;12.148;2022-08-01T15:41:30;30.70;35.70
792;DHT22;379;49.022;12.148;2022-08-01T15:43:57;30.50;36.00
792;DHT22;379;49.022;12.148;2022-08-01T15:46:24;30.50;36.50
792;DHT22;379;49.022;12.148;2022-08-01T15:48:51;30.50;36.90
792;DHT22;379;49.022;12.148;2022-08-01T15:51:19;30.50;37.30
792;DHT22;379;49.022;12.148;2022-08-01T15:53:46;30.40;37.70
792;DHT22;379;49.022;12.148;2022-08-01T15:56:13;30.20;38.00
792;DHT22;379;49.022;12.148;2022-08-01T15:58:39;30.00;38.30
792;DHT22;379;49.022;12.148;2022-08-01T16:01:06;29.90;38.40
792;DHT22;379;49.022;12.148;2022-08-01T16:03:33;30.00;39.30
792;DHT22;379;49.022;12.148;2022-08-01T16:06:01;30.20;40.00
792;DHT22;379;49.022;12.148;2022-08-01T16:08:29;30.20;38.90
792;DHT22;379;49.022;12.148;2022-08-01T16:10:56;30.20;39.10
792;DHT22;379;49.022;12.148;2022-08-01T16:13:23;30.10;39.40
792;DHT22;379;49.022;12.148;2022-08-01T16:15:50;29.90;39.90
792;DHT22;379;49.022;12.148;2022-08-01T16:18:17;29.90;39.90
792;DHT22;379;49.022;12.148;2022-08-01T16:20:43;29.90;39.90
792;DHT22;379;49.022;12.148;2022-08-01T16:23:10;29.80;40.10
792;DHT22;379;49.022;12.148;2022-08-01T16:25:38;29.60;40.60
792;DHT22;379;49.022;12.148;2022-08-01T16:28:06;29.50;40.60
792;DHT22;379;49.022;12.148;2022-08-01T16:30:34;29.40;40.90
792;DHT22;379;49.022;12.148;2022-08-01T16:33:01;29.30;40.80